Airfield :
LOGIN :

Register | Disclaimer

   EN    FR    IT 

 










Legend :    VFR   Marginal VFR   IFR   Intensive IFR   Very Intensive IFR
Visi :
Ceiling :
>= 8 km
>= 3000ft
5 to 8 km
1000 to 3000 ft
1500m to 5 km
500 to 1000 ft
800 to 1500m
200 to 500 ft
< 800m
< 200 ft
Symbols :   Thunderstorms  Fog  Heavy snow  Heavy precipitations  Wind > 20 kt
SIGMETs :     Misc.  Thunderstorms  Icing  Turbulence  Mountain Waves  Volcanic Ashes






- Airport Elevation : 538 ft
- IATA code : TNF


LFPN - Toussus Le Noble

CURRENT METAR :
  • 152000Z AUTO 17008KT 9999 OVC005 01/01 Q0999 TEMPO 2000 -SNRA

EXPIRED METARs :
  • 151930Z AUTO 17008KT 9999 -RA OVC004 01/01 Q0999 TEMPO 2000 -SNRA
  • 151900Z AUTO 18007KT 7000 -SN OVC004 01/00 Q0999 TEMPO 2000 -SNRA
  • 151830Z AUTO 18007KT 4400 -SN BR OVC003 01/00 Q0998 TEMPO 2000 -SNRA
  • 151800Z AUTO 18007KT 5000 -SN BR OVC003 01/00 Q0998 TEMPO 2000 -SNRA
  • 151730Z AUTO 19006KT 4000 -SN BR OVC003 00/00 Q0998 TEMPO 2000 -SNRA

TAF TAF LFPN
Valid from the 15 at 18:00 until the 16 at 03:00 UTC


151700Z 1518/1603 18008KT 7000 BKN008
TEMPO 1518/1522 2000 -SNRA BKN003
TEMPO 1522/1603 3000 -RA BKN003
ATIS : +33 1 39 56 54 70



MET'MAP, your aeronautical weather chart ! - Copyright ORBIFLY December 2007 - Disclaimer

ORBIFLY MET'MAP TEAM :

Programming & Development : Alexandra Zaïnal
Concept & Development : Baudouin d'Aumeries
Co-Development & Prog : Marc-Olivier Méhu
Technical & hardware support : Manuel Goepfert

Contact : metmap@orbifly.com




SOURCES & CREDITS :

   NOAA